sensor_id;sensor_type;location;lat;lon;timestamp;pressure;altitude;pressure_sealevel;temperature;humidity
51315;BME280;65787;59.922;10.742;2023-05-07T00:02:04;102120.69;;;11.58;26.61
51315;BME280;65787;59.922;10.742;2023-05-07T00:04:30;102121.47;;;11.50;26.98
51315;BME280;65787;59.922;10.742;2023-05-07T00:07:02;102121.63;;;11.49;26.58
51315;BME280;65787;59.922;10.742;2023-05-07T00:09:27;102118.94;;;11.49;27.04
51315;BME280;65787;59.922;10.742;2023-05-07T00:11:52;102119.94;;;11.48;26.91
51315;BME280;65787;59.922;10.742;2023-05-07T00:14:18;102115.41;;;11.48;27.09
51315;BME280;65787;59.922;10.742;2023-05-07T00:16:43;102118.78;;;11.50;26.79
51315;BME280;65787;59.922;10.742;2023-05-07T00:19:08;102130.91;;;11.54;26.77
51315;BME280;65787;59.922;10.742;2023-05-07T00:21:34;102125.00;;;11.51;26.75
51315;BME280;65787;59.922;10.742;2023-05-07T00:23:59;102122.63;;;11.48;26.87
51315;BME280;65787;59.922;10.742;2023-05-07T00:26:24;102128.19;;;11.46;26.84
51315;BME280;65787;59.922;10.742;2023-05-07T00:28:50;102122.97;;;11.45;27.05
51315;BME280;65787;59.922;10.742;2023-05-07T00:31:15;102118.56;;;11.43;27.16
51315;BME280;65787;59.922;10.742;2023-05-07T00:33:40;102117.19;;;11.39;27.31
51315;BME280;65787;59.922;10.742;2023-05-07T00:36:06;102125.41;;;11.38;27.51
51315;BME280;65787;59.922;10.742;2023-05-07T00:38:31;102121.22;;;11.35;27.61
51315;BME280;65787;59.922;10.742;2023-05-07T00:40:56;102125.28;;;11.39;26.86
51315;BME280;65787;59.922;10.742;2023-05-07T00:43:22;102119.72;;;11.41;27.60
51315;BME280;65787;59.922;10.742;2023-05-07T00:45:47;102123.25;;;11.41;27.44
51315;BME280;65787;59.922;10.742;2023-05-07T00:48:13;102122.28;;;11.42;27.78
51315;BME280;65787;59.922;10.742;2023-05-07T00:50:38;102126.25;;;11.38;27.24
51315;BME280;65787;59.922;10.742;2023-05-07T00:53:03;102126.06;;;11.32;27.53
51315;BME280;65787;59.922;10.742;2023-05-07T00:55:29;102121.63;;;11.22;27.60
51315;BME280;65787;59.922;10.742;2023-05-07T00:57:54;102132.00;;;11.17;27.61
51315;BME280;65787;59.922;10.742;2023-05-07T01:00:20;102133.84;;;11.17;27.83
51315;BME280;65787;59.922;10.742;2023-05-07T01:02:46;102131.09;;;11.09;27.51
51315;BME280;65787;59.922;10.742;2023-05-07T01:05:12;102134.56;;;11.01;27.73
51315;BME280;65787;59.922;10.742;2023-05-07T01:07:38;102129.81;;;10.95;28.09
51315;BME280;65787;59.922;10.742;2023-05-07T01:10:05;102137.97;;;10.85;28.40
51315;BME280;65787;59.922;10.742;2023-05-07T01:12:31;102130.13;;;10.74;28.35
51315;BME280;65787;59.922;10.742;2023-05-07T01:14:57;102133.13;;;10.71;28.27
51315;BME280;65787;59.922;10.742;2023-05-07T01:17:23;102137.31;;;10.73;28.68
51315;BME280;65787;59.922;10.742;2023-05-07T01:19:48;102136.63;;;10.71;28.48
51315;BME280;65787;59.922;10.742;2023-05-07T01:22:14;102141.94;;;10.63;28.99
51315;BME280;65787;59.922;10.742;2023-05-07T01:24:41;102141.69;;;10.56;29.17
51315;BME280;65787;59.922;10.742;2023-05-07T01:27:06;102139.34;;;10.53;29.08
51315;BME280;65787;59.922;10.742;2023-05-07T01:29:31;102145.41;;;10.55;28.99
51315;BME280;65787;59.922;10.742;2023-05-07T01:31:57;102143.25;;;10.59;28.47
51315;BME280;65787;59.922;10.742;2023-05-07T01:34:23;102139.00;;;10.56;28.91
51315;BME280;65787;59.922;10.742;2023-05-07T01:36:50;102144.03;;;10.51;28.80
51315;BME280;65787;59.922;10.742;2023-05-07T01:39:15;102141.09;;;10.44;28.65
51315;BME280;65787;59.922;10.742;2023-05-07T01:41:41;102144.31;;;10.48;28.63
51315;BME280;65787;59.922;10.742;2023-05-07T01:44:08;102151.00;;;10.44;29.16
51315;BME280;65787;59.922;10.742;2023-05-07T01:46:35;102148.19;;;10.36;29.68
51315;BME280;65787;59.922;10.742;2023-05-07T01:49:00;102143.97;;;10.33;29.25
51315;BME280;65787;59.922;10.742;2023-05-07T01:51:26;102139.00;;;10.28;28.95
51315;BME280;65787;59.922;10.742;2023-05-07T01:53:52;102142.72;;;10.27;29.55
51315;BME280;65787;59.922;10.742;2023-05-07T01:56:18;102145.25;;;10.29;29.58
51315;BME280;65787;59.922;10.742;2023-05-07T01:58:44;102140.16;;;10.26;29.45
51315;BME280;65787;59.922;10.742;2023-05-07T02:01:10;102139.63;;;10.22;29.59
51315;BME280;65787;59.922;10.742;2023-05-07T02:03:36;102134.88;;;10.16;29.95
51315;BME280;65787;59.922;10.742;2023-05-07T02:06:01;102137.69;;;10.15;29.73
51315;BME280;65787;59.922;10.742;2023-05-07T02:08:27;102140.81;;;10.10;29.44
51315;BME280;65787;59.922;10.742;2023-05-07T02:10:52;102142.50;;;10.11;29.80
51315;BME280;65787;59.922;10.742;2023-05-07T02:13:19;102140.81;;;10.10;30.33
51315;BME280;65787;59.922;10.742;2023-05-07T02:15:45;102139.28;;;10.07;30.02
51315;BME280;65787;59.922;10.742;2023-05-07T02:18:15;102143.25;;;10.03;29.25
51315;BME280;65787;59.922;10.742;2023-05-07T02:20:41;102135.63;;;9.99;30.18
51315;BME280;65787;59.922;10.742;2023-05-07T02:23:06;102143.84;;;9.97;30.38
51315;BME280;65787;59.922;10.742;2023-05-07T02:25:31;102139.19;;;9.99;30.57
51315;BME280;65787;59.922;10.742;2023-05-07T02:27:57;102137.50;;;9.98;30.24
51315;BME280;65787;59.922;10.742;2023-05-07T02:30:22;102142.84;;;9.98;30.08
51315;BME280;65787;59.922;10.742;2023-05-07T02:32:47;102139.75;;;9.93;30.67
51315;BME280;65787;59.922;10.742;2023-05-07T02:35:13;102145.00;;;9.95;30.57
51315;BME280;65787;59.922;10.742;2023-05-07T02:37:38;102141.59;;;9.93;31.00
51315;BME280;65787;59.922;10.742;2023-05-07T02:40:03;102146.28;;;9.91;30.25
51315;BME280;65787;59.922;10.742;2023-05-07T02:42:29;102144.75;;;9.88;30.36
51315;BME280;65787;59.922;10.742;2023-05-07T02:44:54;102143.19;;;9.85;30.63
51315;BME280;65787;59.922;10.742;2023-05-07T02:47:20;102144.03;;;9.86;30.82
51315;BME280;65787;59.922;10.742;2023-05-07T02:49:45;102150.53;;;9.83;30.40
51315;BME280;65787;59.922;10.742;2023-05-07T02:52:10;102141.09;;;9.79;31.45
51315;BME280;65787;59.922;10.742;2023-05-07T02:54:36;102147.75;;;9.75;31.03
51315;BME280;65787;59.922;10.742;2023-05-07T02:57:01;102147.50;;;9.68;31.34
51315;BME280;65787;59.922;10.742;2023-05-07T02:59:27;102151.59;;;9.63;31.09
51315;BME280;65787;59.922;10.742;2023-05-07T03:01:52;102150.34;;;9.57;31.43
51315;BME280;65787;59.922;10.742;2023-05-07T03:04:17;102151.50;;;9.55;31.32
51315;BME280;65787;59.922;10.742;2023-05-07T03:06:43;102155.59;;;9.49;30.84
51315;BME280;65787;59.922;10.742;2023-05-07T03:09:08;102157.72;;;9.45;31.73
51315;BME280;65787;59.922;10.742;2023-05-07T03:11:34;102161.38;;;9.44;31.60
51315;BME280;65787;59.922;10.742;2023-05-07T03:14:00;102167.19;;;9.40;31.44
51315;BME280;65787;59.922;10.742;2023-05-07T03:16:26;102157.00;;;9.43;31.88
51315;BME280;65787;59.922;10.742;2023-05-07T03:18:52;102157.31;;;9.40;31.98
51315;BME280;65787;59.922;10.742;2023-05-07T03:21:17;102161.25;;;9.46;32.05
51315;BME280;65787;59.922;10.742;2023-05-07T03:23:42;102157.28;;;9.50;31.52
51315;BME280;65787;59.922;10.742;2023-05-07T03:26:08;102155.44;;;9.50;31.12
51315;BME280;65787;59.922;10.742;2023-05-07T03:28:33;102156.13;;;9.53;31.44
51315;BME280;65787;59.922;10.742;2023-05-07T03:30:58;102160.38;;;9.55;31.91
51315;BME280;65787;59.922;10.742;2023-05-07T03:33:23;102163.19;;;9.54;31.99
51315;BME280;65787;59.922;10.742;2023-05-07T03:35:49;102166.44;;;9.57;31.88
51315;BME280;65787;59.922;10.742;2023-05-07T03:38:14;102171.09;;;9.65;31.90
51315;BME280;65787;59.922;10.742;2023-05-07T03:40:40;102162.75;;;9.68;31.44
51315;BME280;65787;59.922;10.742;2023-05-07T03:43:05;102163.88;;;9.65;31.41
51315;BME280;65787;59.922;10.742;2023-05-07T03:45:36;102164.88;;;9.64;31.65
51315;BME280;65787;59.922;10.742;2023-05-07T03:48:01;102162.19;;;9.64;32.11
51315;BME280;65787;59.922;10.742;2023-05-07T03:50:26;102162.75;;;9.68;32.34
51315;BME280;65787;59.922;10.742;2023-05-07T03:52:52;102164.16;;;9.72;32.13
51315;BME280;65787;59.922;10.742;2023-05-07T03:55:17;102163.69;;;9.77;31.76
51315;BME280;65787;59.922;10.742;2023-05-07T03:57:43;102171.19;;;9.83;31.77
51315;BME280;65787;59.922;10.742;2023-05-07T04:00:08;102169.78;;;9.79;31.52
51315;BME280;65787;59.922;10.742;2023-05-07T04:02:34;102173.44;;;9.78;31.16
51315;BME280;65787;59.922;10.742;2023-05-07T04:04:59;102173.16;;;9.71;31.97
51315;BME280;65787;59.922;10.742;2023-05-07T04:07:24;102173.88;;;9.73;31.91
51315;BME280;65787;59.922;10.742;2023-05-07T04:09:50;102172.59;;;9.77;31.67
51315;BME280;65787;59.922;10.742;2023-05-07T04:12:15;102164.56;;;9.77;31.86
51315;BME280;65787;59.922;10.742;2023-05-07T04:14:40;102170.75;;;9.78;31.71
51315;BME280;65787;59.922;10.742;2023-05-07T04:17:06;102178.66;;;9.79;30.92
51315;BME280;65787;59.922;10.742;2023-05-07T04:19:33;102171.31;;;9.81;31.64
51315;BME280;65787;59.922;10.742;2023-05-07T04:21:58;102167.78;;;9.81;31.34
51315;BME280;65787;59.922;10.742;2023-05-07T04:24:25;102176.22;;;9.86;31.22
51315;BME280;65787;59.922;10.742;2023-05-07T04:26:50;102178.63;;;9.89;30.63
51315;BME280;65787;59.922;10.742;2023-05-07T04:29:16;102174.09;;;9.89;30.98
51315;BME280;65787;59.922;10.742;2023-05-07T04:31:41;102184.28;;;9.96;31.26
51315;BME280;65787;59.922;10.742;2023-05-07T04:34:09;102177.47;;;10.01;30.91
51315;BME280;65787;59.922;10.742;2023-05-07T04:36:34;102172.78;;;10.03;31.41
51315;BME280;65787;59.922;10.742;2023-05-07T04:38:59;102179.00;;;10.04;31.29
51315;BME280;65787;59.922;10.742;2023-05-07T04:41:25;102176.31;;;10.04;31.09
51315;BME280;65787;59.922;10.742;2023-05-07T04:43:50;102181.25;;;10.08;31.29
51315;BME280;65787;59.922;10.742;2023-05-07T04:46:16;102182.63;;;10.13;31.46
51315;BME280;65787;59.922;10.742;2023-05-07T04:48:41;102178.09;;;10.13;31.80
51315;BME280;65787;59.922;10.742;2023-05-07T04:51:07;102189.81;;;10.22;31.68
51315;BME280;65787;59.922;10.742;2023-05-07T04:53:32;102188.34;;;10.37;31.35
51315;BME280;65787;59.922;10.742;2023-05-07T04:55:58;102184.00;;;10.54;31.09
51315;BME280;65787;59.922;10.742;2023-05-07T04:58:23;102202.72;;;10.64;30.88
51315;BME280;65787;59.922;10.742;2023-05-07T05:00:49;102190.59;;;10.60;30.35
51315;BME280;65787;59.922;10.742;2023-05-07T05:03:14;102194.53;;;10.65;30.81
51315;BME280;65787;59.922;10.742;2023-05-07T05:05:39;102193.94;;;10.72;30.87
51315;BME280;65787;59.922;10.742;2023-05-07T05:08:05;102201.25;;;10.79;30.87
51315;BME280;65787;59.922;10.742;2023-05-07T05:10:30;102193.78;;;10.91;30.69
51315;BME280;65787;59.922;10.742;2023-05-07T05:12:55;102196.88;;;10.96;30.69
51315;BME280;65787;59.922;10.742;2023-05-07T05:15:21;102196.78;;;11.06;30.28
51315;BME280;65787;59.922;10.742;2023-05-07T05:17:46;102193.66;;;11.11;30.66
51315;BME280;65787;59.922;10.742;2023-05-07T05:20:11;102193.16;;;11.15;30.16
51315;BME280;65787;59.922;10.742;2023-05-07T05:22:37;102201.28;;;11.23;29.99
51315;BME280;65787;59.922;10.742;2023-05-07T05:25:02;102200.16;;;11.26;30.16
51315;BME280;65787;59.922;10.742;2023-05-07T05:27:28;102200.84;;;11.28;30.01
51315;BME280;65787;59.922;10.742;2023-05-07T05:29:53;102202.22;;;11.32;30.60
51315;BME280;65787;59.922;10.742;2023-05-07T05:32:19;102207.34;;;11.43;30.15
51315;BME280;65787;59.922;10.742;2023-05-07T05:34:44;102199.00;;;11.55;29.98
51315;BME280;65787;59.922;10.742;2023-05-07T05:37:09;102207.84;;;11.65;30.06
51315;BME280;65787;59.922;10.742;2023-05-07T05:39:35;102208.91;;;11.72;29.98
51315;BME280;65787;59.922;10.742;2023-05-07T05:42:00;102200.19;;;11.78;29.36
51315;BME280;65787;59.922;10.742;2023-05-07T05:44:26;102165.63;;;11.66;29.64
51315;BME280;65787;59.922;10.742;2023-05-07T05:46:51;102207.22;;;11.97;29.57
51315;BME280;65787;59.922;10.742;2023-05-07T05:49:16;102201.22;;;12.04;29.37
51315;BME280;65787;59.922;10.742;2023-05-07T05:51:42;102207.28;;;12.06;29.67
51315;BME280;65787;59.922;10.742;2023-05-07T05:54:07;102208.50;;;12.19;29.48
51315;BME280;65787;59.922;10.742;2023-05-07T05:56:33;102205.00;;;12.19;28.72
51315;BME280;65787;59.922;10.742;2023-05-07T05:58:58;102201.47;;;12.27;29.13
51315;BME280;65787;59.922;10.742;2023-05-07T06:01:23;102201.84;;;12.32;28.60
51315;BME280;65787;59.922;10.742;2023-05-07T06:03:49;102203.53;;;12.33;28.94
51315;BME280;65787;59.922;10.742;2023-05-07T06:06:14;102199.50;;;12.37;28.64
51315;BME280;65787;59.922;10.742;2023-05-07T06:08:39;102203.88;;;12.38;28.76
51315;BME280;65787;59.922;10.742;2023-05-07T06:11:05;102203.22;;;12.44;28.39
51315;BME280;65787;59.922;10.742;2023-05-07T06:13:30;102209.13;;;12.39;28.99
51315;BME280;65787;59.922;10.742;2023-05-07T06:15:55;102216.53;;;12.46;28.39
51315;BME280;65787;59.922;10.742;2023-05-07T06:18:21;102210.00;;;12.56;28.46
51315;BME280;65787;59.922;10.742;2023-05-07T06:20:46;102217.28;;;12.64;28.52
51315;BME280;65787;59.922;10.742;2023-05-07T06:23:11;102218.63;;;12.68;28.17
51315;BME280;65787;59.922;10.742;2023-05-07T06:25:36;102209.75;;;12.84;27.96
51315;BME280;65787;59.922;10.742;2023-05-07T06:28:03;102208.56;;;12.87;27.84
51315;BME280;65787;59.922;10.742;2023-05-07T06:30:29;102212.44;;;12.84;27.72
51315;BME280;65787;59.922;10.742;2023-05-07T06:32:54;102214.47;;;12.82;27.71
51315;BME280;65787;59.922;10.742;2023-05-07T06:35:20;102213.31;;;12.93;27.39
51315;BME280;65787;59.922;10.742;2023-05-07T06:37:45;102215.16;;;13.01;27.42
51315;BME280;65787;59.922;10.742;2023-05-07T06:40:10;102215.84;;;13.03;26.84
51315;BME280;65787;59.922;10.742;2023-05-07T06:42:36;102213.81;;;13.05;27.30
51315;BME280;65787;59.922;10.742;2023-05-07T06:45:02;102207.59;;;13.12;27.64
51315;BME280;65787;59.922;10.742;2023-05-07T06:47:27;102210.47;;;13.19;27.62
51315;BME280;65787;59.922;10.742;2023-05-07T06:49:53;102203.19;;;13.28;27.27
51315;BME280;65787;59.922;10.742;2023-05-07T06:52:18;102206.94;;;13.35;27.88
51315;BME280;65787;59.922;10.742;2023-05-07T06:54:43;102208.44;;;13.29;28.32
51315;BME280;65787;59.922;10.742;2023-05-07T06:57:09;102209.97;;;13.40;28.26
51315;BME280;65787;59.922;10.742;2023-05-07T06:59:34;102210.81;;;13.41;28.38
51315;BME280;65787;59.922;10.742;2023-05-07T07:01:59;102211.31;;;13.44;28.23
51315;BME280;65787;59.922;10.742;2023-05-07T07:04:25;102202.38;;;13.52;28.28
51315;BME280;65787;59.922;10.742;2023-05-07T07:06:51;102206.09;;;13.59;28.67
51315;BME280;65787;59.922;10.742;2023-05-07T07:09:16;102210.81;;;13.57;28.54
51315;BME280;65787;59.922;10.742;2023-05-07T07:11:42;102212.84;;;13.63;28.72
51315;BME280;65787;59.922;10.742;2023-05-07T07:14:07;102205.09;;;13.60;28.66
51315;BME280;65787;59.922;10.742;2023-05-07T07:16:32;102216.53;;;13.62;28.43
51315;BME280;65787;59.922;10.742;2023-05-07T07:18:58;102210.47;;;13.77;29.00
51315;BME280;65787;59.922;10.742;2023-05-07T07:21:23;102212.13;;;13.78;28.62
51315;BME280;65787;59.922;10.742;2023-05-07T07:23:48;102200.47;;;13.85;28.54
51315;BME280;65787;59.922;10.742;2023-05-07T07:26:13;102209.59;;;13.84;28.36
51315;BME280;65787;59.922;10.742;2023-05-07T07:28:45;102209.59;;;13.84;28.71
51315;BME280;65787;59.922;10.742;2023-05-07T07:31:10;102204.69;;;13.88;28.26
51315;BME280;65787;59.922;10.742;2023-05-07T07:33:36;102210.44;;;13.85;28.67
51315;BME280;65787;59.922;10.742;2023-05-07T07:36:01;102210.06;;;13.96;28.42
51315;BME280;65787;59.922;10.742;2023-05-07T07:38:27;102213.78;;;13.95;28.30
51315;BME280;65787;59.922;10.742;2023-05-07T07:40:53;102212.44;;;13.91;28.07
51315;BME280;65787;59.922;10.742;2023-05-07T07:43:18;102213.59;;;14.05;28.32
51315;BME280;65787;59.922;10.742;2023-05-07T07:45:43;102209.50;;;14.17;27.42
51315;BME280;65787;59.922;10.742;2023-05-07T07:48:09;102210.84;;;14.21;27.46
51315;BME280;65787;59.922;10.742;2023-05-07T07:50:34;102211.50;;;14.23;27.38
51315;BME280;65787;59.922;10.742;2023-05-07T07:53:00;102212.00;;;14.27;27.69
51315;BME280;65787;59.922;10.742;2023-05-07T07:55:25;102215.47;;;14.04;28.16
51315;BME280;65787;59.922;10.742;2023-05-07T07:57:51;102214.59;;;14.04;28.00
51315;BME280;65787;59.922;10.742;2023-05-07T08:00:16;102217.25;;;14.20;27.90
51315;BME280;65787;59.922;10.742;2023-05-07T08:02:41;102216.38;;;14.28;27.52
51315;BME280;65787;59.922;10.742;2023-05-07T08:05:07;102212.50;;;14.30;27.49
51315;BME280;65787;59.922;10.742;2023-05-07T08:07:32;102216.13;;;14.46;27.05
51315;BME280;65787;59.922;10.742;2023-05-07T08:09:58;102213.38;;;14.54;27.09
51315;BME280;65787;59.922;10.742;2023-05-07T08:12:23;102214.03;;;14.64;27.17
51315;BME280;65787;59.922;10.742;2023-05-07T08:14:48;102212.09;;;14.81;26.77
51315;BME280;65787;59.922;10.742;2023-05-07T08:17:15;102212.50;;;14.93;26.41
51315;BME280;65787;59.922;10.742;2023-05-07T08:19:41;102214.03;;;14.96;25.97
51315;BME280;65787;59.922;10.742;2023-05-07T08:22:07;102210.19;;;14.90;25.28
51315;BME280;65787;59.922;10.742;2023-05-07T08:24:32;102213.72;;;14.90;25.52
51315;BME280;65787;59.922;10.742;2023-05-07T08:26:57;102212.28;;;15.03;25.47
51315;BME280;65787;59.922;10.742;2023-05-07T08:29:22;102220.34;;;15.11;24.91
51315;BME280;65787;59.922;10.742;2023-05-07T08:31:48;102221.44;;;15.25;25.05
51315;BME280;65787;59.922;10.742;2023-05-07T08:34:13;102224.97;;;15.25;25.29
51315;BME280;65787;59.922;10.742;2023-05-07T08:36:38;102223.22;;;15.33;25.09
51315;BME280;65787;59.922;10.742;2023-05-07T08:39:06;102218.38;;;15.43;25.08
51315;BME280;65787;59.922;10.742;2023-05-07T08:41:32;102222.44;;;15.62;25.28
51315;BME280;65787;59.922;10.742;2023-05-07T08:43:58;102222.88;;;15.74;24.85
51315;BME280;65787;59.922;10.742;2023-05-07T08:46:23;102226.72;;;15.79;24.64
51315;BME280;65787;59.922;10.742;2023-05-07T08:48:50;102229.97;;;15.90;24.82
51315;BME280;65787;59.922;10.742;2023-05-07T08:51:17;102230.44;;;15.93;24.46
51315;BME280;65787;59.922;10.742;2023-05-07T08:53:42;102228.38;;;15.95;24.30
51315;BME280;65787;59.922;10.742;2023-05-07T08:56:08;102212.72;;;16.05;23.64
51315;BME280;65787;59.922;10.742;2023-05-07T08:58:33;102209.06;;;16.13;23.71
51315;BME280;65787;59.922;10.742;2023-05-07T09:00:58;102209.22;;;16.26;24.43
51315;BME280;65787;59.922;10.742;2023-05-07T09:03:25;102212.03;;;16.33;23.64
51315;BME280;65787;59.922;10.742;2023-05-07T09:05:50;102216.88;;;16.38;23.67
51315;BME280;65787;59.922;10.742;2023-05-07T09:08:16;102204.91;;;16.47;24.27
51315;BME280;65787;59.922;10.742;2023-05-07T09:10:41;102209.59;;;16.53;24.05
51315;BME280;65787;59.922;10.742;2023-05-07T09:13:07;102204.03;;;16.61;23.63
51315;BME280;65787;59.922;10.742;2023-05-07T09:15:32;102201.66;;;16.73;23.93
51315;BME280;65787;59.922;10.742;2023-05-07T09:18:00;102208.00;;;16.80;23.60
51315;BME280;65787;59.922;10.742;2023-05-07T09:20:26;102204.25;;;16.96;22.90
51315;BME280;65787;59.922;10.742;2023-05-07T09:22:51;102196.03;;;17.11;22.95
51315;BME280;65787;59.922;10.742;2023-05-07T09:25:18;102201.53;;;17.18;22.85
51315;BME280;65787;59.922;10.742;2023-05-07T09:27:52;102194.78;;;17.35;23.28
51315;BME280;65787;59.922;10.742;2023-05-07T09:30:17;102197.53;;;17.42;21.78
51315;BME280;65787;59.922;10.742;2023-05-07T09:32:43;102198.84;;;17.46;21.32
51315;BME280;65787;59.922;10.742;2023-05-07T09:35:17;102205.19;;;17.53;21.05
51315;BME280;65787;59.922;10.742;2023-05-07T09:37:42;102203.53;;;17.59;21.27
51315;BME280;65787;59.922;10.742;2023-05-07T09:40:08;102194.34;;;17.60;20.54
51315;BME280;65787;59.922;10.742;2023-05-07T09:42:34;102195.72;;;17.49;19.17
51315;BME280;65787;59.922;10.742;2023-05-07T09:45:00;102194.06;;;17.48;19.47
51315;BME280;65787;59.922;10.742;2023-05-07T09:47:25;102190.34;;;17.56;19.79
51315;BME280;65787;59.922;10.742;2023-05-07T09:49:55;102189.78;;;17.67;19.25
51315;BME280;65787;59.922;10.742;2023-05-07T09:52:21;102191.50;;;17.68;19.71
51315;BME280;65787;59.922;10.742;2023-05-07T09:54:46;102183.13;;;17.98;19.99
51315;BME280;65787;59.922;10.742;2023-05-07T09:57:13;102184.84;;;18.06;19.60
51315;BME280;65787;59.922;10.742;2023-05-07T09:59:39;102179.66;;;18.17;19.31
51315;BME280;65787;59.922;10.742;2023-05-07T10:02:07;102180.34;;;18.26;19.17
51315;BME280;65787;59.922;10.742;2023-05-07T10:04:35;102186.00;;;18.31;19.09
51315;BME280;65787;59.922;10.742;2023-05-07T10:07:00;102187.34;;;18.55;19.20
51315;BME280;65787;59.922;10.742;2023-05-07T10:09:26;102175.44;;;18.70;18.60
51315;BME280;65787;59.922;10.742;2023-05-07T10:11:52;102176.75;;;18.81;18.88
51315;BME280;65787;59.922;10.742;2023-05-07T10:14:19;102173.84;;;18.95;19.61
51315;BME280;65787;59.922;10.742;2023-05-07T10:16:45;102179.53;;;19.21;19.42
51315;BME280;65787;59.922;10.742;2023-05-07T10:19:12;102187.28;;;19.44;18.91
51315;BME280;65787;59.922;10.742;2023-05-07T10:21:38;102185.56;;;19.63;18.66
51315;BME280;65787;59.922;10.742;2023-05-07T10:24:11;102183.47;;;19.85;18.83
51315;BME280;65787;59.922;10.742;2023-05-07T10:26:42;102180.22;;;20.15;19.33
51315;BME280;65787;59.922;10.742;2023-05-07T10:29:12;102177.97;;;20.50;19.35
51315;BME280;65787;59.922;10.742;2023-05-07T10:34:08;102170.47;;;20.84;17.94
51315;BME280;65787;59.922;10.742;2023-05-07T10:36:35;102176.94;;;20.90;18.24
51315;BME280;65787;59.922;10.742;2023-05-07T10:39:00;102172.97;;;21.17;18.61
51315;BME280;65787;59.922;10.742;2023-05-07T10:41:26;102169.25;;;21.30;18.48
51315;BME280;65787;59.922;10.742;2023-05-07T10:43:52;102168.06;;;21.51;18.43
51315;BME280;65787;59.922;10.742;2023-05-07T10:46:18;102168.84;;;21.77;18.41
51315;BME280;65787;59.922;10.742;2023-05-07T10:49:29;102168.16;;;22.00;17.88
51315;BME280;65787;59.922;10.742;2023-05-07T10:51:31;102165.78;;;22.22;18.15
51315;BME280;65787;59.922;10.742;2023-05-07T10:56:40;102162.78;;;22.60;17.41
51315;BME280;65787;59.922;10.742;2023-05-07T11:04:20;102158.59;;;22.58;16.34
51315;BME280;65787;59.922;10.742;2023-05-07T11:12:16;102164.56;;;22.55;16.19
51315;BME280;65787;59.922;10.742;2023-05-07T11:17:11;102151.16;;;23.43;17.16
51315;BME280;65787;59.922;10.742;2023-05-07T11:19:53;102154.38;;;23.63;16.12
51315;BME280;65787;59.922;10.742;2023-05-07T11:24:57;102148.22;;;24.08;15.72
51315;BME280;65787;59.922;10.742;2023-05-07T11:27:24;102147.03;;;24.04;14.95
51315;BME280;65787;59.922;10.742;2023-05-07T11:29:49;102142.84;;;24.13;14.58
51315;BME280;65787;59.922;10.742;2023-05-07T11:32:15;102136.00;;;24.28;15.24
51315;BME280;65787;59.922;10.742;2023-05-07T11:34:41;102139.94;;;24.49;15.36
51315;BME280;65787;59.922;10.742;2023-05-07T11:37:07;102121.22;;;24.75;15.13
51315;BME280;65787;59.922;10.742;2023-05-07T11:39:33;102124.31;;;24.95;14.47
51315;BME280;65787;59.922;10.742;2023-05-07T11:41:59;102113.81;;;25.26;14.81
51315;BME280;65787;59.922;10.742;2023-05-07T11:44:40;102128.00;;;25.57;14.88
51315;BME280;65787;59.922;10.742;2023-05-07T11:47:05;102119.69;;;25.74;14.38
51315;BME280;65787;59.922;10.742;2023-05-07T11:49:30;102125.56;;;25.99;13.78
51315;BME280;65787;59.922;10.742;2023-05-07T11:51:56;102129.59;;;26.14;13.88
51315;BME280;65787;59.922;10.742;2023-05-07T11:54:21;102119.06;;;26.11;14.33
51315;BME280;65787;59.922;10.742;2023-05-07T11:56:47;102119.69;;;26.40;14.16
51315;BME280;65787;59.922;10.742;2023-05-07T11:59:16;102115.88;;;26.46;13.57
51315;BME280;65787;59.922;10.742;2023-05-07T12:01:44;102118.25;;;26.37;13.89
51315;BME280;65787;59.922;10.742;2023-05-07T12:04:10;102115.03;;;26.45;13.94
51315;BME280;65787;59.922;10.742;2023-05-07T12:06:36;102118.84;;;26.67;13.11
51315;BME280;65787;59.922;10.742;2023-05-07T12:09:01;102107.84;;;26.44;13.07
51315;BME280;65787;59.922;10.742;2023-05-07T12:11:26;102112.47;;;26.61;13.10
51315;BME280;65787;59.922;10.742;2023-05-07T12:13:53;102111.94;;;26.64;13.11
51315;BME280;65787;59.922;10.742;2023-05-07T12:16:19;102110.59;;;27.04;13.35
51315;BME280;65787;59.922;10.742;2023-05-07T12:18:44;102112.94;;;27.22;12.84
51315;BME280;65787;59.922;10.742;2023-05-07T12:21:10;102110.94;;;27.13;12.77
51315;BME280;65787;59.922;10.742;2023-05-07T12:23:36;102118.91;;;26.72;12.73
51315;BME280;65787;59.922;10.742;2023-05-07T12:26:02;102103.03;;;26.84;12.55
51315;BME280;65787;59.922;10.742;2023-05-07T12:28:27;102115.69;;;27.22;12.20
51315;BME280;65787;59.922;10.742;2023-05-07T12:30:53;102106.78;;;27.48;12.59
51315;BME280;65787;59.922;10.742;2023-05-07T12:33:20;102111.88;;;27.76;12.55
51315;BME280;65787;59.922;10.742;2023-05-07T12:35:48;102102.94;;;28.07;12.04
51315;BME280;65787;59.922;10.742;2023-05-07T12:38:14;102105.13;;;28.05;12.46
51315;BME280;65787;59.922;10.742;2023-05-07T12:40:40;102099.88;;;28.13;11.83
51315;BME280;65787;59.922;10.742;2023-05-07T12:43:06;102099.13;;;28.38;11.62
51315;BME280;65787;59.922;10.742;2023-05-07T12:45:36;102097.75;;;28.46;11.88
51315;BME280;65787;59.922;10.742;2023-05-07T12:48:01;102098.63;;;28.83;11.62
51315;BME280;65787;59.922;10.742;2023-05-07T12:50:30;102096.38;;;29.05;11.41
51315;BME280;65787;59.922;10.742;2023-05-07T12:52:56;102094.16;;;29.18;11.83
51315;BME280;65787;59.922;10.742;2023-05-07T12:55:21;102084.38;;;29.51;11.47
51315;BME280;65787;59.922;10.742;2023-05-07T12:57:49;102090.16;;;29.65;9.95